Time;durP1;ratioP1;P1;durP2;ratioP2;P2;SDS_P1;SDS_P2;PMS_P1;PMS_P2;Temp;Humidity;BMP_temperature;BMP_pressure;BME280_temperature;BME280_humidity;BME280_pressure;Samples;Min_cycle;Max_cycle;Signal;HPM_P1;HPM_P2
2022/08/17 00:00:16;;;;;;;14.90;13.40;;;;;;;18.40;86.09;97379.71;105616;1281;22875;-88
2022/08/17 00:03:18;;;;;;;17.00;15.40;;;;;;;18.44;86.14;97376.42;105554;1281;22524;-88
2022/08/17 00:05:58;;;;;;;16.10;14.40;;;;;;;18.44;86.25;97374.25;105583;1281;25370;-88
2022/08/17 00:08:31;;;;;;;15.20;13.60;;;;;;;18.47;86.50;97369.16;105325;1282;22713;-88
2022/08/17 00:11:00;;;;;;;15.20;13.80;;;;;;;18.48;86.51;97369.42;105667;1281;22868;-89
2022/08/17 00:13:35;;;;;;;16.10;14.10;;;;;;;18.46;86.61;97366.89;105408;1281;22620;-88
2022/08/17 00:16:10;;;;;;;15.30;13.90;;;;;;;18.41;86.28;97369.14;105670;1281;24253;-88
2022/08/17 00:18:39;;;;;;;14.90;13.30;;;;;;;18.39;86.57;97370.59;105603;1281;22715;-87
2022/08/17 00:21:27;;;;;;;14.90;13.40;;;;;;;18.37;86.15;97372.95;105607;1281;22541;-86
2022/08/17 00:24:16;;;;;;;18.60;16.80;;;;;;;18.32;85.77;97367.42;105631;1281;23017;-86
2022/08/17 00:26:45;;;;;;;18.10;16.40;;;;;;;18.27;86.47;97365.91;105612;1281;22775;-88
2022/08/17 00:29:13;;;;;;;20.30;16.10;;;;;;;18.20;87.23;97361.29;105474;1281;22871;-87
2022/08/17 00:31:48;;;;;;;17.10;15.40;;;;;;;18.13;87.62;97359.67;105530;1281;22623;-88
2022/08/17 00:34:16;;;;;;;17.20;15.00;;;;;;;18.07;87.63;97359.80;105616;1281;25444;-86
2022/08/17 00:36:44;;;;;;;16.70;15.20;;;;;;;18.04;87.84;97361.23;105584;1281;23953;-88
2022/08/17 00:39:12;;;;;;;15.70;14.10;;;;;;;18.07;87.91;97364.92;105644;1281;22709;-88
2022/08/17 00:41:41;;;;;;;15.50;14.00;;;;;;;18.11;87.93;97369.61;105848;1281;25528;-87
2022/08/17 00:44:10;;;;;;;15.00;13.60;;;;;;;18.17;87.82;97372.29;105649;1281;25354;-88
2022/08/17 00:46:41;;;;;;;16.00;14.50;;;;;;;18.22;88.01;97371.52;105706;1281;25321;-87
2022/08/17 00:49:12;;;;;;;18.80;15.80;;;;;;;18.18;88.03;97369.20;105700;1281;24275;-87
2022/08/17 00:52:14;;;;;;;17.70;15.90;;;;;;;18.12;88.57;97371.42;105630;1281;22676;-87
2022/08/17 00:54:45;;;;;;;19.10;16.30;;;;;;;18.04;89.12;97373.14;105047;1287;22553;-88
2022/08/17 00:57:31;;;;;;;19.20;16.10;;;;;;;18.00;89.52;97370.40;104900;1287;22731;-88
2022/08/17 01:00:05;;;;;;;16.50;14.90;;;;;;;17.98;89.04;97373.10;104854;1287;22726;-88
2022/08/17 01:02:39;;;;;;;16.90;15.30;;;;;;;17.99;88.95;97371.25;104849;1287;24435;-88
2022/08/17 01:05:16;;;;;;;18.30;16.40;;;;;;;18.02;88.68;97368.42;104944;1287;25398;-88
2022/08/17 01:07:49;;;;;;;17.70;15.80;;;;;;;18.03;88.96;97373.75;105099;1288;25707;-88
2022/08/17 01:10:24;;;;;;;17.90;15.60;;;;;;;18.08;89.19;97373.14;105136;1287;22570;-87
2022/08/17 01:13:12;;;;;;;18.30;15.80;;;;;;;18.11;89.03;97370.88;105008;1288;22743;-88
2022/08/17 01:15:47;;;;;;;17.50;15.00;;;;;;;18.15;89.10;97371.88;104994;1287;22894;-87
2022/08/17 01:18:15;;;;;;;15.90;14.40;;;;;;;18.14;88.78;97375.11;105107;1287;22716;-88
2022/08/17 01:20:48;;;;;;;18.00;16.20;;;;;;;18.10;89.40;97376.99;105645;1287;22599;-87
2022/08/17 01:23:19;;;;;;;18.30;16.40;;;;;;;18.02;89.60;97379.27;105262;1287;25356;-88
2022/08/17 01:25:50;;;;;;;19.40;16.10;;;;;;;17.95;89.98;97378.09;105348;1287;25413;-87
2022/08/17 01:28:19;;;;;;;17.30;15.40;;;;;;;17.83;90.64;97380.05;105528;1287;25320;-87
2022/08/17 01:31:08;;;;;;;16.40;14.80;;;;;;;17.74;90.84;97385.60;105170;1281;24342;-88
2022/08/17 01:33:36;;;;;;;20.80;16.70;;;;;;;17.68;90.68;97384.08;105626;1281;25325;-89
2022/08/17 01:36:06;;;;;;;16.00;14.40;;;;;;;17.64;90.74;97384.39;105677;1281;22702;-88
2022/08/17 01:38:35;;;;;;;17.20;15.60;;;;;;;17.65;90.52;97389.64;105795;1282;24291;-86
2022/08/17 01:41:14;;;;;;;18.00;16.30;;;;;;;17.69;90.49;97385.88;105930;1281;24292;-86
2022/08/17 01:43:50;;;;;;;17.10;15.40;;;;;;;17.74;90.35;97384.73;105847;1281;22693;-87
2022/08/17 01:46:26;;;;;;;17.10;15.50;;;;;;;17.76;90.10;97388.12;105924;1281;22669;-88
2022/08/17 01:48:57;;;;;;;16.50;14.80;;;;;;;17.81;90.50;97390.51;106060;1281;22697;-87
2022/08/17 01:51:32;;;;;;;17.50;15.90;;;;;;;17.84;90.47;97393.60;106060;1281;22545;-85
2022/08/17 01:54:09;;;;;;;16.80;15.30;;;;;;;17.86;90.66;97396.15;106990;1281;25396;-87
2022/08/17 01:56:46;;;;;;;18.40;16.10;;;;;;;17.89;90.67;97401.52;107912;1281;22549;-87
2022/08/17 01:59:18;;;;;;;17.20;15.70;;;;;;;17.91;90.67;97404.13;108257;1281;22567;-87
2022/08/17 02:01:47;;;;;;;17.30;15.50;;;;;;;17.92;90.63;97402.96;107891;1281;22549;-86
2022/08/17 02:04:15;;;;;;;22.00;17.40;;;;;;;17.87;90.66;97404.19;107904;1281;22557;-89
2022/08/17 02:06:44;;;;;;;19.30;17.40;;;;;;;17.82;90.70;97408.44;107825;1281;22587;-87
2022/08/17 02:09:25;;;;;;;19.20;17.20;;;;;;;17.77;90.75;97409.25;107728;1281;26533;-88
2022/08/17 02:12:01;;;;;;;18.60;16.40;;;;;;;17.72;90.79;97406.48;108177;1281;22563;-86
2022/08/17 02:14:49;;;;;;;16.60;15.00;;;;;;;17.70;91.21;97400.54;108196;1281;23097;-88
2022/08/17 02:17:17;;;;;;;16.90;15.30;;;;;;;17.74;91.33;97394.85;107667;1281;22640;-87
2022/08/17 02:19:45;;;;;;;17.70;16.10;;;;;;;17.78;91.26;97388.66;106799;1281;22688;-87
2022/08/17 02:22:14;;;;;;;18.40;16.80;;;;;;;17.78;91.30;97381.56;108450;1281;25442;-88
2022/08/17 02:24:43;;;;;;;18.90;17.10;;;;;;;17.75;91.52;97382.96;108071;1281;22685;-88
2022/08/17 02:27:28;;;;;;;19.40;17.40;;;;;;;17.70;91.70;97382.32;108482;1281;23067;-89
2022/08/17 02:29:56;;;;;;;20.00;18.00;;;;;;;17.69;91.79;97381.84;108368;1280;23998;-88
2022/08/17 02:32:25;;;;;;;17.70;15.90;;;;;;;17.67;91.53;97380.92;108556;1281;22492;-89
2022/08/17 02:34:56;;;;;;;17.00;15.20;;;;;;;17.69;91.77;97382.14;108491;1281;22555;-89
2022/08/17 02:37:26;;;;;;;17.40;15.70;;;;;;;17.70;91.73;97383.64;108705;1279;22567;-87
2022/08/17 02:39:58;;;;;;;18.30;16.60;;;;;;;17.69;91.79;97381.38;108617;1281;24409;-86
2022/08/17 02:42:37;;;;;;;18.50;16.60;;;;;;;17.70;91.80;97382.55;108486;1281;22551;-87
2022/08/17 02:45:12;;;;;;;20.70;18.00;;;;;;;17.72;92.01;97384.63;108146;1281;22549;-88
2022/08/17 02:47:42;;;;;;;18.90;17.20;;;;;;;17.69;91.87;97385.27;108386;1281;25300;-87
2022/08/17 02:50:13;;;;;;;20.30;18.40;;;;;;;17.64;91.95;97387.58;107188;1281;25491;-88
2022/08/17 02:52:43;;;;;;;19.60;17.60;;;;;;;17.60;91.76;97388.67;105748;1281;22721;-88
2022/08/17 02:55:33;;;;;;;20.10;18.30;;;;;;;17.56;91.68;97388.34;105894;1281;26617;-88
2022/08/17 02:58:02;;;;;;;18.30;16.60;;;;;;;17.55;91.84;97393.21;105834;1281;22691;-88
2022/08/17 03:00:34;;;;;;;18.70;17.00;;;;;;;17.55;91.95;97390.40;105969;1281;24231;-89
2022/08/17 03:03:29;;;;;;;19.30;17.40;;;;;;;17.54;92.00;97389.00;106097;1281;23930;-90
2022/08/17 03:05:57;;;;;;;20.70;18.80;;;;;;;17.52;91.82;97390.44;105828;1281;22588;-88
2022/08/17 03:12:12;;;;;;;19.40;17.30;;;;;;;17.42;91.50;97390.30;105971;1281;23384;-88
2022/08/17 03:14:42;;;;;;;21.40;19.30;;;;;;;17.43;91.72;97394.98;105959;1281;25438;-88
2022/08/17 03:17:10;;;;;;;20.00;18.30;;;;;;;17.48;91.70;97398.67;106053;1281;22593;-88
2022/08/17 03:19:44;;;;;;;20.30;18.50;;;;;;;17.53;91.68;97398.77;105929;1281;25399;-89
2022/08/17 03:22:12;;;;;;;22.20;20.30;;;;;;;17.57;91.83;97401.27;105811;1281;22539;-88
2022/08/17 03:24:59;;;;;;;22.60;20.30;;;;;;;17.65;92.01;97399.95;105859;1281;22498;-89
2022/08/17 03:27:28;;;;;;;21.00;18.80;;;;;;;17.71;91.87;97402.51;105878;1281;23613;-90
2022/08/17 03:29:56;;;;;;;18.50;16.80;;;;;;;17.72;91.43;97400.65;105660;1281;24056;-90
2022/08/17 03:32:24;;;;;;;19.40;17.50;;;;;;;17.68;91.70;97402.45;105790;1281;22543;-90
2022/08/17 03:34:58;;;;;;;21.10;19.00;;;;;;;17.62;91.93;97406.46;105730;1281;22578;-89
2022/08/17 03:37:26;;;;;;;25.70;23.10;;;;;;;17.54;92.26;97408.54;105800;1281;22684;-90
2022/08/17 03:39:54;;;;;;;25.00;22.60;;;;;;;17.47;92.20;97408.98;105731;1281;22712;-91
2022/08/17 03:42:25;;;;;;;23.50;21.50;;;;;;;17.40;92.34;97409.48;106310;1281;22731;-91
2022/08/17 03:45:00;;;;;;;23.20;20.80;;;;;;;17.35;92.07;97415.19;105780;1281;25565;-90
2022/08/17 03:58:45;;;;;;;20.20;18.20;;;;;;;17.46;92.44;97428.19;105809;1281;24413;-90
2022/08/17 04:01:15;;;;;;;21.30;19.00;;;;;;;17.48;92.29;97436.27;105598;1281;25363;-91
2022/08/17 04:03:43;;;;;;;21.10;19.10;;;;;;;17.47;92.15;97435.69;105858;1281;22699;-89
2022/08/17 04:06:11;;;;;;;21.50;19.50;;;;;;;17.44;92.22;97440.98;105647;1281;24188;-90
2022/08/17 04:08:39;;;;;;;22.60;20.50;;;;;;;17.41;92.14;97443.52;105786;1281;22706;-90
2022/08/17 04:11:07;;;;;;;20.80;19.10;;;;;;;17.40;92.55;97444.41;105827;1281;22717;-90
2022/08/17 04:13:34;;;;;;;23.30;21.10;;;;;;;17.43;92.59;97443.14;105479;1281;22708;-90
2022/08/17 04:16:03;;;;;;;25.20;23.10;;;;;;;17.47;92.55;97443.31;105823;1281;22656;-91
2022/08/17 04:18:31;;;;;;;26.40;24.00;;;;;;;17.54;92.62;97437.55;105776;1281;22662;-90
2022/08/17 04:21:00;;;;;;;41.70;37.60;;;;;;;17.61;92.70;97437.88;105686;1281;22568;-88
2022/08/17 04:23:32;;;;;;;34.70;31.50;;;;;;;17.69;92.71;97440.38;105727;1281;24209;-91
2022/08/17 04:26:00;;;;;;;40.40;36.90;;;;;;;17.78;93.00;97441.35;106027;1281;24222;-89
2022/08/17 04:28:29;;;;;;;40.80;36.80;;;;;;;17.88;93.11;97445.70;106187;1281;22552;-92
2022/08/17 04:30:58;;;;;;;38.50;35.00;;;;;;;17.96;92.99;97445.02;105857;1281;22690;-91
2022/08/17 04:33:28;;;;;;;37.50;34.20;;;;;;;18.01;92.80;97442.95;105723;1281;22799;-91
2022/08/17 04:35:59;;;;;;;27.20;24.90;;;;;;;18.04;92.83;97445.73;105845;1281;22495;-90
2022/08/17 04:38:30;;;;;;;26.00;23.50;;;;;;;17.99;92.36;97446.88;105826;1281;22760;-91
2022/08/17 04:43:48;;;;;;;31.60;28.50;;;;;;;18.01;92.96;97448.16;105863;1281;23557;-90
2022/08/17 04:46:18;;;;;;;31.10;28.30;;;;;;;18.06;93.15;97452.61;105656;1282;22766;-91
2022/08/17 04:48:49;;;;;;;37.40;34.10;;;;;;;18.14;93.28;97456.36;106160;1281;22701;-90
2022/08/17 04:51:26;;;;;;;35.10;32.00;;;;;;;18.22;93.47;97453.89;107020;1281;24110;-89
2022/08/17 04:53:59;;;;;;;34.30;30.70;;;;;;;18.29;93.39;97453.63;105867;1281;22709;-87
2022/08/17 04:56:29;;;;;;;31.50;28.20;;;;;;;18.39;93.65;97454.67;105754;1281;25356;-89
2022/08/17 04:59:04;;;;;;;31.90;28.00;;;;;;;18.46;93.47;97450.82;105840;1281;25637;-87
2022/08/17 05:01:35;;;;;;;31.90;28.00;;;;;;;18.54;93.43;97448.71;105382;1283;23339;-88
2022/08/17 05:04:10;;;;;;;29.90;26.90;;;;;;;18.64;93.68;97450.45;105720;1281;22705;-86
2022/08/17 05:06:57;;;;;;;33.60;26.40;;;;;;;18.75;93.61;97451.21;105696;1281;25539;-86
2022/08/17 05:09:27;;;;;;;27.80;25.20;;;;;;;18.83;93.43;97453.00;105741;1281;22576;-88
2022/08/17 05:12:00;;;;;;;30.00;26.40;;;;;;;18.90;93.73;97454.99;105712;1281;24196;-87
2022/08/17 05:14:28;;;;;;;29.90;27.00;;;;;;;18.97;93.75;97459.56;106183;1281;22543;-88
2022/08/17 05:17:01;;;;;;;27.30;24.70;;;;;;;19.06;93.77;97462.89;105665;1281;24302;-86
2022/08/17 05:19:38;;;;;;;29.70;26.40;;;;;;;19.16;93.67;97461.05;105678;1281;22770;-87
2022/08/17 05:22:06;;;;;;;29.70;26.90;;;;;;;19.22;94.59;97461.54;105716;1281;22705;-88
2022/08/17 05:24:35;;;;;;;31.80;28.10;;;;;;;19.21;94.74;97460.35;105701;1281;25417;-89
2022/08/17 05:27:17;;;;;;;31.10;27.50;;;;;;;19.17;94.42;97461.77;105694;1281;24365;-88
2022/08/17 05:29:46;;;;;;;28.60;25.70;;;;;;;19.15;94.42;97463.98;105668;1281;22574;-89
2022/08/17 05:32:14;;;;;;;31.00;28.00;;;;;;;19.15;94.37;97464.63;105639;1281;25248;-88
2022/08/17 05:35:04;;;;;;;30.00;27.00;;;;;;;19.17;94.55;97462.55;105706;1281;22817;-89
2022/08/17 05:37:32;;;;;;;29.90;26.90;;;;;;;19.18;94.45;97466.48;105563;1282;22883;-89
2022/08/17 05:40:00;;;;;;;30.00;26.70;;;;;;;19.22;94.46;97460.74;105733;1281;22566;-89
2022/08/17 05:42:28;;;;;;;31.20;28.00;;;;;;;19.26;94.33;97459.73;105395;1281;22541;-91
2022/08/17 05:44:57;;;;;;;30.70;27.90;;;;;;;19.31;94.47;97465.25;105721;1281;22565;-91
2022/08/17 05:47:26;;;;;;;29.30;26.30;;;;;;;19.33;94.58;97466.30;105674;1281;24878;-91
2022/08/17 05:49:54;;;;;;;30.00;26.60;;;;;;;19.37;94.60;97471.20;105758;1281;24474;-89
2022/08/17 05:52:40;;;;;;;29.20;26.40;;;;;;;19.42;94.71;97473.55;105740;1281;22549;-88
2022/08/17 05:55:12;;;;;;;28.90;25.20;;;;;;;19.47;94.47;97466.91;105737;1281;24190;-88
2022/08/17 05:57:55;;;;;;;30.00;27.00;;;;;;;19.56;94.58;97464.46;105770;1281;23082;-89
2022/08/17 06:00:35;;;;;;;29.90;26.90;;;;;;;19.64;94.45;97469.99;105690;1281;22557;-89
2022/08/17 06:03:17;;;;;;;32.70;29.40;;;;;;;19.73;94.50;97469.12;105785;1281;22728;-89
2022/08/17 06:05:49;;;;;;;33.30;29.70;;;;;;;19.77;94.22;97471.74;105819;1281;22695;-90
2022/08/17 06:08:26;;;;;;;31.20;28.10;;;;;;;19.82;94.07;97467.91;105780;1281;25387;-91
2022/08/17 06:11:18;;;;;;;28.80;25.90;;;;;;;19.90;93.87;97470.67;105759;1281;22558;-90
2022/08/17 06:13:47;;;;;;;29.10;26.40;;;;;;;20.05;93.97;97473.43;105816;1281;25359;-91
2022/08/17 06:16:24;;;;;;;28.80;25.90;;;;;;;20.15;93.82;97476.69;105764;1280;22556;-90
2022/08/17 06:19:10;;;;;;;26.30;23.60;;;;;;;20.28;93.74;97480.60;105900;1281;25262;-87
2022/08/17 06:21:42;;;;;;;28.80;26.00;;;;;;;20.44;93.94;97474.38;105609;1281;25921;-89
2022/08/17 06:24:19;;;;;;;27.00;24.70;;;;;;;20.59;93.69;97476.68;105711;1281;25438;-89
2022/08/17 06:26:47;;;;;;;28.40;25.80;;;;;;;20.73;93.54;97476.75;105633;1281;26632;-89
2022/08/17 06:29:40;;;;;;;27.20;24.70;;;;;;;20.83;93.08;97476.55;105785;1281;24968;-93
2022/08/17 06:32:11;;;;;;;27.50;24.90;;;;;;;20.95;92.70;97470.23;105957;1281;22560;-87
2022/08/17 06:34:42;;;;;;;27.30;23.90;;;;;;;21.07;92.76;97467.05;105648;1281;24089;-87
2022/08/17 06:37:37;;;;;;;26.00;23.30;;;;;;;21.26;93.00;97466.49;105452;1281;22573;-86
2022/08/17 06:40:21;;;;;;;31.80;28.70;;;;;;;21.50;92.86;97464.89;105907;1281;22706;-88
2022/08/17 06:43:14;;;;;;;28.30;25.40;;;;;;;21.65;91.93;97466.64;105973;1279;22622;-87
2022/08/17 06:45:48;;;;;;;32.90;29.30;;;;;;;21.76;91.55;97469.38;105773;1281;22872;-86
2022/08/17 06:48:35;;;;;;;29.50;26.60;;;;;;;21.86;90.71;97468.10;105735;1281;22870;-87
2022/08/17 06:51:16;;;;;;;30.00;26.70;;;;;;;21.94;89.86;97469.63;105492;1281;25315;-88
2022/08/17 06:53:51;;;;;;;31.00;27.90;;;;;;;22.02;89.68;97471.23;105561;1282;22866;-87
2022/08/17 06:56:33;;;;;;;30.10;26.80;;;;;;;22.08;89.00;97471.27;105843;1281;25365;-87
2022/08/17 06:59:32;;;;;;;27.00;24.40;;;;;;;22.18;88.79;97473.77;105851;1280;25238;-89
2022/08/17 07:02:35;;;;;;;27.60;24.90;;;;;;;22.37;89.26;97473.52;105914;1281;25522;-88
2022/08/17 07:05:25;;;;;;;28.00;24.80;;;;;;;22.54;87.62;97473.97;105982;1281;24145;-86
2022/08/17 07:08:44;;;;;;;25.70;23.20;;;;;;;22.62;86.25;97476.50;106872;1281;25324;-87
2022/08/17 07:11:20;;;;;;;25.70;22.60;;;;;;;22.74;85.75;97478.35;105793;1281;23361;-88
2022/08/17 07:14:10;;;;;;;24.20;21.60;;;;;;;22.80;84.98;97480.70;105709;1281;22874;-87
2022/08/17 07:16:52;;;;;;;22.10;19.00;;;;;;;22.94;85.19;97480.41;105780;1281;24453;-85
2022/08/17 07:19:25;;;;;;;22.70;20.30;;;;;;;23.05;84.67;97480.30;105837;1281;25403;-85
2022/08/17 07:22:02;;;;;;;23.00;20.60;;;;;;;23.17;85.46;97477.86;105740;1281;24363;-86
2022/08/17 07:24:42;;;;;;;23.50;20.60;;;;;;;23.33;84.65;97480.46;105707;1281;23930;-86
2022/08/17 07:27:20;;;;;;;23.60;21.20;;;;;;;23.43;83.44;97480.70;105855;1281;22664;-87
2022/08/17 07:29:56;;;;;;;22.00;19.60;;;;;;;23.51;83.44;97479.34;105782;1281;24432;-86
2022/08/17 07:32:33;;;;;;;19.90;17.80;;;;;;;23.66;82.13;97480.83;105815;1281;23211;-86
2022/08/17 07:35:07;;;;;;;22.00;19.80;;;;;;;23.71;81.39;97483.67;105775;1281;22880;-85
2022/08/17 07:38:02;;;;;;;21.70;19.40;;;;;;;23.77;81.82;97482.02;105776;1281;24369;-86
2022/08/17 07:40:35;;;;;;;20.80;18.60;;;;;;;23.89;81.23;97478.20;105795;1281;22770;-85
2022/08/17 07:43:12;;;;;;;22.00;19.80;;;;;;;23.97;80.61;97476.85;105730;1281;23034;-87
2022/08/17 07:49:02;;;;;;;20.60;17.60;;;;;;;24.18;79.82;97472.85;105801;1281;22539;-85
2022/08/17 07:51:35;;;;;;;19.10;17.20;;;;;;;24.29;78.44;97480.13;105758;1281;22859;-86
2022/08/17 07:54:21;;;;;;;21.00;17.10;;;;;;;24.36;79.45;97475.54;106134;1281;24238;-88
2022/08/17 07:57:00;;;;;;;19.70;17.80;;;;;;;24.51;77.02;97480.52;105724;1281;22563;-87
2022/08/17 07:59:34;;;;;;;19.10;16.90;;;;;;;24.60;77.46;97479.93;105761;1281;22548;-87
2022/08/17 08:02:23;;;;;;;20.40;16.30;;;;;;;24.67;75.45;97476.58;105794;1281;22703;-87
2022/08/17 08:05:07;;;;;;;18.80;16.30;;;;;;;24.76;75.74;97478.11;105789;1281;25382;-86
2022/08/17 08:07:59;;;;;;;19.10;16.40;;;;;;;24.88;76.47;97476.05;105765;1281;24264;-87
2022/08/17 08:10:36;;;;;;;17.50;15.80;;;;;;;25.03;75.12;97480.20;105665;1281;22703;-88
2022/08/17 08:13:14;;;;;;;16.30;14.60;;;;;;;25.12;73.42;97483.69;106112;1281;22655;-88
2022/08/17 08:15:49;;;;;;;16.40;14.70;;;;;;;25.17;73.87;97485.49;105757;1281;22559;-89
2022/08/17 08:18:39;;;;;;;17.20;14.90;;;;;;;25.29;74.94;97484.92;105759;1281;25283;-86
2022/08/17 08:21:41;;;;;;;16.10;14.50;;;;;;;25.49;74.64;97488.68;105773;1281;23306;-87
2022/08/17 08:24:39;;;;;;;19.30;17.10;;;;;;;25.64;72.11;97487.45;105893;1281;25390;-87
2022/08/17 08:27:37;;;;;;;17.30;14.80;;;;;;;25.79;73.82;97483.92;105773;1281;22625;-87
2022/08/17 08:30:20;;;;;;;15.80;14.20;;;;;;;25.91;70.84;97484.69;105761;1281;22889;-86
2022/08/17 08:33:07;;;;;;;16.40;14.50;;;;;;;25.97;71.88;97483.20;105690;1281;25450;-87
2022/08/17 08:35:51;;;;;;;17.90;15.20;;;;;;;26.07;69.90;97489.26;105755;1281;25267;-87
2022/08/17 08:38:46;;;;;;;17.00;13.90;;;;;;;26.09;68.19;97484.89;105630;1281;22560;-87
2022/08/17 08:41:23;;;;;;;19.40;14.80;;;;;;;26.13;66.62;97486.19;104954;1290;24317;-86
2022/08/17 08:43:57;;;;;;;20.20;13.70;;;;;;;26.17;66.96;97485.89;105030;1290;22722;-85
2022/08/17 08:46:29;;;;;;;23.70;14.90;;;;;;;26.25;65.35;97484.77;104966;1290;25486;-88
2022/08/17 08:49:30;;;;;;;19.60;14.10;;;;;;;26.32;65.85;97480.52;104930;1290;24277;-86
2022/08/17 08:52:29;;;;;;;17.00;14.20;;;;;;;26.45;64.93;97480.98;104901;1291;22720;-85
2022/08/17 08:55:04;;;;;;;17.40;13.90;;;;;;;26.49;64.15;97479.20;105038;1291;24231;-86
2022/08/17 08:58:21;;;;;;;22.40;15.40;;;;;;;26.61;62.43;97479.77;104955;1289;23640;-85
2022/08/17 09:01:19;;;;;;;19.00;13.40;;;;;;;26.74;62.86;97481.02;104407;1291;23888;-86
2022/08/17 09:04:20;;;;;;;16.20;13.20;;;;;;;26.81;61.45;97483.77;104918;1290;22556;-87
2022/08/17 09:07:04;;;;;;;20.70;13.90;;;;;;;26.77;60.93;97484.38;105125;1288;22550;-85
2022/08/17 09:09:53;;;;;;;16.40;13.10;;;;;;;26.68;61.53;97480.77;105096;1288;22608;-85
2022/08/17 09:12:47;;;;;;;19.30;12.50;;;;;;;26.85;61.67;97480.29;104966;1288;22655;-86
2022/08/17 09:15:25;;;;;;;15.70;11.80;;;;;;;27.04;60.90;97481.13;105001;1288;22777;-85
2022/08/17 09:18:03;;;;;;;19.10;12.40;;;;;;;27.18;60.54;97479.83;105135;1281;24111;-86
2022/08/17 09:21:00;;;;;;;13.50;12.10;;;;;;;27.12;60.12;97478.55;105724;1281;26610;-86
2022/08/17 09:23:58;;;;;;;13.20;11.80;;;;;;;27.18;59.98;97482.04;105767;1281;22564;-84
2022/08/17 09:26:55;;;;;;;18.40;11.30;;;;;;;27.28;60.26;97478.73;105763;1281;24287;-85
2022/08/17 09:29:28;;;;;;;16.60;12.10;;;;;;;27.52;60.71;97471.84;104917;1290;22588;-86
2022/08/17 09:32:02;;;;;;;17.80;12.50;;;;;;;27.80;59.63;97476.58;104871;1290;22758;-86
2022/08/17 09:34:41;;;;;;;18.30;12.20;;;;;;;27.87;55.38;97481.45;104897;1290;22557;-86
2022/08/17 09:37:28;;;;;;;13.80;12.20;;;;;;;27.73;55.32;97486.19;104994;1288;22574;-86
2022/08/17 09:39:56;;;;;;;15.20;13.00;;;;;;;27.77;55.26;97483.20;104930;1288;24266;-86
2022/08/17 09:42:48;;;;;;;17.10;12.70;;;;;;;27.91;55.81;97488.33;104909;1288;23724;-85
2022/08/17 09:45:45;;;;;;;25.30;13.10;;;;;;;28.09;55.02;97483.39;104885;1288;23377;-86
2022/08/17 09:48:19;;;;;;;18.00;12.80;;;;;;;28.16;54.40;97490.70;104931;1288;26755;-84
2022/08/17 09:51:13;;;;;;;;;;;;;;;28.01;54.92;97494.01;104996;1288;22570;-85
2022/08/17 09:53:42;;;;;;;18.40;12.60;;;;;;;27.74;53.66;97493.77;103749;1290;24452;-84
2022/08/17 09:56:30;;;;;;;18.30;13.60;;;;;;;27.66;54.59;97489.39;105134;1288;23635;-84
2022/08/17 09:59:06;;;;;;;18.20;13.10;;;;;;;27.87;55.20;97487.61;105069;1288;24371;-84
2022/08/17 10:02:15;;;;;;;20.00;14.60;;;;;;;28.12;54.51;97486.35;105066;1288;23226;-83
2022/08/17 10:04:58;;;;;;;16.90;13.10;;;;;;;28.23;53.82;97483.75;104560;1294;22750;-84
2022/08/17 10:07:39;;;;;;;21.30;15.00;;;;;;;28.32;52.41;97483.80;105191;1287;25343;-88
2022/08/17 10:10:13;;;;;;;21.80;15.80;;;;;;;28.29;52.99;97478.50;105193;1287;25427;-87
2022/08/17 10:12:47;;;;;;;22.10;15.70;;;;;;;28.24;53.41;97474.64;104957;1288;22720;-83
2022/08/17 10:15:28;;;;;;;24.00;14.10;;;;;;;28.20;54.11;97472.59;105102;1287;22575;-84
2022/08/17 10:18:24;;;;;;;18.00;12.50;;;;;;;28.33;53.63;97472.23;104942;1288;22949;-85
2022/08/17 10:27:47;;;;;;;13.80;11.10;;;;;;;28.69;51.21;97473.39;105108;1287;23154;-85
2022/08/17 10:30:18;;;;;;;15.30;11.70;;;;;;;28.85;48.91;97476.13;104980;1288;22713;-86
2022/08/17 10:32:53;;;;;;;15.10;12.20;;;;;;;29.00;49.15;97479.99;104890;1288;22697;-85
2022/08/17 10:35:48;;;;;;;17.70;12.60;;;;;;;29.16;49.53;97474.40;105088;1287;22723;-86
2022/08/17 10:38:37;;;;;;;21.00;14.70;;;;;;;29.39;49.10;97469.86;105059;1287;24427;-85
2022/08/17 10:41:39;;;;;;;19.10;14.50;;;;;;;29.43;48.60;97477.95;104830;1288;25486;-85
2022/08/17 10:44:41;;;;;;;21.80;12.50;;;;;;;29.50;49.20;97475.80;104899;1287;23504;-84
2022/08/17 10:47:15;;;;;;;16.50;12.70;;;;;;;29.65;48.78;97482.02;104495;1294;25994;-87
2022/08/17 10:49:52;;;;;;;18.20;11.50;;;;;;;29.50;48.74;97481.58;104539;1294;24403;-87
2022/08/17 10:52:21;;;;;;;15.90;11.90;;;;;;;29.25;48.98;97480.05;104482;1294;22562;-86
2022/08/17 10:54:52;;;;;;;17.10;12.40;;;;;;;29.31;49.68;97474.67;104369;1294;24297;-87
2022/08/17 10:57:48;;;;;;;16.70;11.80;;;;;;;29.57;50.00;97475.38;104372;1294;22575;-86
2022/08/17 11:00:19;;;;;;;16.70;12.30;;;;;;;29.92;48.12;97478.69;104032;1300;25254;-86
2022/08/17 11:02:56;;;;;;;18.80;12.40;;;;;;;30.05;47.53;97478.48;104006;1300;25385;-85
2022/08/17 11:05:39;;;;;;;13.80;11.30;;;;;;;30.18;48.47;97472.59;104021;1300;22752;-86
2022/08/17 11:08:13;;;;;;;18.50;11.10;;;;;;;30.11;46.68;97472.38;103932;1300;22709;-86
2022/08/17 11:10:43;;;;;;;18.20;10.90;;;;;;;29.91;46.81;97474.96;103898;1300;26587;-86
2022/08/17 11:13:39;;;;;;;17.60;11.70;;;;;;;29.68;47.40;97477.64;104060;1300;24242;-87
2022/08/17 11:16:27;;;;;;;13.90;11.00;;;;;;;29.53;47.80;97476.98;103960;1300;24385;-85
2022/08/17 11:19:25;;;;;;;13.70;10.70;;;;;;;29.62;47.59;97474.15;103917;1300;23801;-87
2022/08/17 11:22:28;;;;;;;17.10;11.30;;;;;;;29.72;46.02;97472.64;104046;1300;24409;-87
2022/08/17 11:25:15;;;;;;;22.10;11.20;;;;;;;29.89;46.53;97467.50;104096;1297;22598;-86
2022/08/17 11:27:48;;;;;;;13.50;10.30;;;;;;;30.06;46.62;97470.83;104139;1296;23478;-84
2022/08/17 11:30:45;;;;;;;16.30;10.30;;;;;;;30.27;45.77;97466.86;104205;1297;25426;-84
2022/08/17 11:33:33;;;;;;;17.70;10.60;;;;;;;30.26;44.77;97471.42;104693;1297;25926;-84
2022/08/17 11:36:22;;;;;;;13.10;9.80;;;;;;;30.07;44.92;97470.03;105024;1288;22744;-85
2022/08/17 11:38:56;;;;;;;17.60;11.20;;;;;;;29.90;44.68;97472.39;105652;1281;22562;-85
2022/08/17 11:42:08;;;;;;;15.70;11.50;;;;;;;29.68;45.37;97473.21;105924;1281;22732;-86
2022/08/17 11:44:54;;;;;;;14.20;11.20;;;;;;;29.40;45.72;97478.66;105747;1281;23944;-85
2022/08/17 11:53:36;;;;;;;15.00;12.00;;;;;;;29.42;46.64;97472.42;106013;1281;24420;-86
2022/08/17 11:56:30;;;;;;;19.50;12.40;;;;;;;29.57;46.26;97471.00;106023;1281;25632;-86
2022/08/17 11:58:59;;;;;;;16.60;12.20;;;;;;;29.52;46.46;97467.56;106004;1280;22635;-88
2022/08/17 12:01:28;;;;;;;14.80;12.20;;;;;;;29.57;46.22;97468.86;105673;1281;22833;-87
2022/08/17 12:04:24;;;;;;;14.20;11.60;;;;;;;29.71;45.84;97470.13;106017;1281;22861;-85
2022/08/17 12:06:58;;;;;;;14.40;11.40;;;;;;;29.99;46.31;97460.06;106028;1281;22710;-88
2022/08/17 12:09:31;;;;;;;14.20;11.90;;;;;;;30.42;45.98;97452.85;106030;1281;22797;-87
2022/08/17 12:12:34;;;;;;;12.10;10.80;;;;;;;30.86;45.18;97453.92;106073;1281;22714;-85
2022/08/17 12:15:06;;;;;;;19.00;10.20;;;;;;;31.07;43.37;97455.80;104937;1288;25652;-86
2022/08/17 12:17:39;;;;;;;17.70;11.00;;;;;;;30.86;43.58;97450.70;104944;1288;23954;-87
2022/08/17 12:20:22;;;;;;;14.80;11.30;;;;;;;30.84;42.57;97454.23;104932;1288;24433;-87
2022/08/17 12:23:03;;;;;;;13.00;11.30;;;;;;;30.79;42.92;97456.37;105000;1288;22712;-86
2022/08/17 12:25:44;;;;;;;17.70;10.30;;;;;;;30.71;43.44;97453.97;105023;1288;23425;-86
2022/08/17 12:28:28;;;;;;;15.10;10.30;;;;;;;30.54;43.15;97457.03;105168;1288;25618;-90
2022/08/17 12:31:04;;;;;;;17.30;10.70;;;;;;;30.39;42.74;97456.11;105005;1288;23481;-88
2022/08/17 12:33:35;;;;;;;18.80;10.80;;;;;;;30.42;43.35;97458.73;104985;1288;24434;-90